sensor_id;sensor_type;location;lat;lon;timestamp;P1;durP1;ratioP1;P2;durP2;ratioP2
73296;SDS011;61524;50.938;11.396;2022-12-11T00:01:56;25.67;;;11.30;;
73296;SDS011;61524;50.938;11.396;2022-12-11T00:04:22;23.73;;;11.40;;
73296;SDS011;61524;50.938;11.396;2022-12-11T00:06:47;22.08;;;9.50;;
73296;SDS011;61524;50.938;11.396;2022-12-11T00:09:15;27.67;;;12.50;;
73296;SDS011;61524;50.938;11.396;2022-12-11T00:11:44;21.27;;;10.68;;
73296;SDS011;61524;50.938;11.396;2022-12-11T00:14:10;27.15;;;11.68;;
73296;SDS011;61524;50.938;11.396;2022-12-11T00:16:36;26.77;;;11.85;;
73296;SDS011;61524;50.938;11.396;2022-12-11T00:19:01;26.13;;;12.18;;
73296;SDS011;61524;50.938;11.396;2022-12-11T00:21:27;28.75;;;12.93;;
73296;SDS011;61524;50.938;11.396;2022-12-11T00:23:53;28.40;;;12.82;;
73296;SDS011;61524;50.938;11.396;2022-12-11T00:26:18;29.35;;;12.70;;
73296;SDS011;61524;50.938;11.396;2022-12-11T00:28:44;23.73;;;12.23;;
73296;SDS011;61524;50.938;11.396;2022-12-11T00:31:14;23.48;;;12.65;;
73296;SDS011;61524;50.938;11.396;2022-12-11T00:33:41;28.83;;;13.68;;
73296;SDS011;61524;50.938;11.396;2022-12-11T00:36:11;27.67;;;13.50;;
73296;SDS011;61524;50.938;11.396;2022-12-11T00:38:38;34.80;;;15.90;;
73296;SDS011;61524;50.938;11.396;2022-12-11T00:41:04;28.23;;;13.65;;
73296;SDS011;61524;50.938;11.396;2022-12-11T00:43:29;35.80;;;14.13;;
73296;SDS011;61524;50.938;11.396;2022-12-11T00:45:54;36.83;;;16.60;;
73296;SDS011;61524;50.938;11.396;2022-12-11T00:48:20;31.88;;;13.95;;
73296;SDS011;61524;50.938;11.396;2022-12-11T00:50:45;29.85;;;14.38;;
73296;SDS011;61524;50.938;11.396;2022-12-11T00:53:11;23.92;;;12.40;;
73296;SDS011;61524;50.938;11.396;2022-12-11T00:55:37;31.73;;;16.35;;
73296;SDS011;61524;50.938;11.396;2022-12-11T00:58:04;27.80;;;11.50;;
73296;SDS011;61524;50.938;11.396;2022-12-11T01:00:29;22.98;;;11.82;;
73296;SDS011;61524;50.938;11.396;2022-12-11T01:02:55;26.40;;;12.70;;
73296;SDS011;61524;50.938;11.396;2022-12-11T01:05:20;29.60;;;12.68;;
73296;SDS011;61524;50.938;11.396;2022-12-11T01:07:46;29.42;;;13.60;;
73296;SDS011;61524;50.938;11.396;2022-12-11T01:10:12;31.30;;;13.50;;
73296;SDS011;61524;50.938;11.396;2022-12-11T01:12:50;28.23;;;12.68;;
73296;SDS011;61524;50.938;11.396;2022-12-11T01:15:40;28.58;;;12.95;;
73296;SDS011;61524;50.938;11.396;2022-12-11T01:18:07;34.30;;;13.68;;
73296;SDS011;61524;50.938;11.396;2022-12-11T01:20:34;26.25;;;10.88;;
73296;SDS011;61524;50.938;11.396;2022-12-11T01:23:04;31.27;;;14.48;;
73296;SDS011;61524;50.938;11.396;2022-12-11T01:25:30;27.52;;;12.65;;
73296;SDS011;61524;50.938;11.396;2022-12-11T01:27:57;28.55;;;13.30;;
73296;SDS011;61524;50.938;11.396;2022-12-11T01:30:23;31.38;;;15.20;;
73296;SDS011;61524;50.938;11.396;2022-12-11T01:32:50;32.38;;;13.88;;
73296;SDS011;61524;50.938;11.396;2022-12-11T01:35:16;24.17;;;11.40;;
73296;SDS011;61524;50.938;11.396;2022-12-11T01:37:42;25.88;;;12.20;;
73296;SDS011;61524;50.938;11.396;2022-12-11T01:40:08;24.67;;;10.23;;
73296;SDS011;61524;50.938;11.396;2022-12-11T01:42:36;26.17;;;10.40;;
73296;SDS011;61524;50.938;11.396;2022-12-11T01:45:46;19.05;;;8.73;;
73296;SDS011;61524;50.938;11.396;2022-12-11T01:48:09;21.85;;;10.13;;
73296;SDS011;61524;50.938;11.396;2022-12-11T01:50:37;19.75;;;9.70;;
73296;SDS011;61524;50.938;11.396;2022-12-11T01:53:06;25.02;;;11.63;;
73296;SDS011;61524;50.938;11.396;2022-12-11T01:55:34;23.40;;;10.70;;
73296;SDS011;61524;50.938;11.396;2022-12-11T01:58:01;25.02;;;9.43;;
73296;SDS011;61524;50.938;11.396;2022-12-11T02:00:27;22.27;;;10.38;;
73296;SDS011;61524;50.938;11.396;2022-12-11T02:02:53;22.75;;;10.38;;
73296;SDS011;61524;50.938;11.396;2022-12-11T02:05:19;25.10;;;11.45;;
73296;SDS011;61524;50.938;11.396;2022-12-11T02:07:48;21.58;;;10.07;;
73296;SDS011;61524;50.938;11.396;2022-12-11T02:10:16;24.23;;;11.35;;
73296;SDS011;61524;50.938;11.396;2022-12-11T02:12:47;17.23;;;8.85;;
73296;SDS011;61524;50.938;11.396;2022-12-11T02:21:21;24.52;;;10.68;;
73296;SDS011;61524;50.938;11.396;2022-12-11T02:26:44;19.73;;;9.75;;
73296;SDS011;61524;50.938;11.396;2022-12-11T02:32:15;25.05;;;10.65;;
73296;SDS011;61524;50.938;11.396;2022-12-11T02:34:48;25.85;;;11.57;;
73296;SDS011;61524;50.938;11.396;2022-12-11T02:37:23;20.33;;;10.35;;
73296;SDS011;61524;50.938;11.396;2022-12-11T02:39:51;21.67;;;10.45;;
73296;SDS011;61524;50.938;11.396;2022-12-11T02:42:19;19.85;;;9.30;;
73296;SDS011;61524;50.938;11.396;2022-12-11T02:44:47;22.00;;;11.25;;
73296;SDS011;61524;50.938;11.396;2022-12-11T02:47:15;25.85;;;11.13;;
73296;SDS011;61524;50.938;11.396;2022-12-11T02:49:44;23.65;;;11.40;;
73296;SDS011;61524;50.938;11.396;2022-12-11T02:52:13;18.00;;;9.70;;
73296;SDS011;61524;50.938;11.396;2022-12-11T02:54:44;19.55;;;11.40;;
73296;SDS011;61524;50.938;11.396;2022-12-11T02:57:13;24.20;;;10.85;;
73296;SDS011;61524;50.938;11.396;2022-12-11T02:59:44;19.33;;;10.57;;
73296;SDS011;61524;50.938;11.396;2022-12-11T03:02:11;22.83;;;11.15;;
73296;SDS011;61524;50.938;11.396;2022-12-11T03:04:38;23.90;;;11.32;;
73296;SDS011;61524;50.938;11.396;2022-12-11T03:07:11;23.67;;;11.23;;
73296;SDS011;61524;50.938;11.396;2022-12-11T03:09:40;25.05;;;11.70;;
73296;SDS011;61524;50.938;11.396;2022-12-11T03:12:08;22.65;;;10.55;;
73296;SDS011;61524;50.938;11.396;2022-12-11T03:14:36;20.52;;;9.52;;
73296;SDS011;61524;50.938;11.396;2022-12-11T03:17:24;28.73;;;11.20;;
73296;SDS011;61524;50.938;11.396;2022-12-11T03:19:54;25.88;;;11.45;;
73296;SDS011;61524;50.938;11.396;2022-12-11T03:27:37;25.15;;;9.90;;
73296;SDS011;61524;50.938;11.396;2022-12-11T03:30:10;26.58;;;11.85;;
73296;SDS011;61524;50.938;11.396;2022-12-11T03:32:42;25.65;;;11.23;;
73296;SDS011;61524;50.938;11.396;2022-12-11T03:35:15;23.63;;;12.50;;
73296;SDS011;61524;50.938;11.396;2022-12-11T03:37:45;26.65;;;11.70;;
73296;SDS011;61524;50.938;11.396;2022-12-11T03:40:14;26.38;;;10.82;;
73296;SDS011;61524;50.938;11.396;2022-12-11T03:42:42;22.88;;;10.32;;
73296;SDS011;61524;50.938;11.396;2022-12-11T03:45:10;28.50;;;11.80;;
73296;SDS011;61524;50.938;11.396;2022-12-11T03:47:38;25.92;;;10.93;;
73296;SDS011;61524;50.938;11.396;2022-12-11T03:50:07;24.17;;;10.88;;
73296;SDS011;61524;50.938;11.396;2022-12-11T03:52:35;25.08;;;11.07;;
73296;SDS011;61524;50.938;11.396;2022-12-11T03:55:04;24.13;;;11.05;;
73296;SDS011;61524;50.938;11.396;2022-12-11T03:57:31;25.60;;;10.75;;
73296;SDS011;61524;50.938;11.396;2022-12-11T03:59:59;22.98;;;10.88;;
73296;SDS011;61524;50.938;11.396;2022-12-11T04:02:25;29.40;;;11.18;;
73296;SDS011;61524;50.938;11.396;2022-12-11T04:04:51;29.60;;;11.70;;
73296;SDS011;61524;50.938;11.396;2022-12-11T04:07:16;29.00;;;11.70;;
73296;SDS011;61524;50.938;11.396;2022-12-11T04:09:42;23.20;;;10.52;;
73296;SDS011;61524;50.938;11.396;2022-12-11T04:12:07;23.30;;;10.55;;
73296;SDS011;61524;50.938;11.396;2022-12-11T04:14:33;25.77;;;10.82;;
73296;SDS011;61524;50.938;11.396;2022-12-11T04:17:17;23.40;;;10.73;;
73296;SDS011;61524;50.938;11.396;2022-12-11T04:20:03;24.45;;;11.38;;
73296;SDS011;61524;50.938;11.396;2022-12-11T04:22:48;23.42;;;11.88;;
73296;SDS011;61524;50.938;11.396;2022-12-11T04:25:32;20.88;;;10.57;;
73296;SDS011;61524;50.938;11.396;2022-12-11T04:27:57;20.80;;;10.70;;
73296;SDS011;61524;50.938;11.396;2022-12-11T04:30:23;20.58;;;9.23;;
73296;SDS011;61524;50.938;11.396;2022-12-11T04:32:52;26.73;;;9.45;;
73296;SDS011;61524;50.938;11.396;2022-12-11T04:35:18;22.30;;;10.25;;
73296;SDS011;61524;50.938;11.396;2022-12-11T04:37:44;18.00;;;8.93;;
73296;SDS011;61524;50.938;11.396;2022-12-11T04:40:11;18.30;;;9.15;;
73296;SDS011;61524;50.938;11.396;2022-12-11T04:42:38;21.45;;;8.82;;
73296;SDS011;61524;50.938;11.396;2022-12-11T04:45:04;22.40;;;9.65;;
73296;SDS011;61524;50.938;11.396;2022-12-11T04:47:33;20.67;;;10.27;;
73296;SDS011;61524;50.938;11.396;2022-12-11T04:50:03;23.83;;;10.93;;
73296;SDS011;61524;50.938;11.396;2022-12-11T04:52:31;21.58;;;11.05;;
73296;SDS011;61524;50.938;11.396;2022-12-11T04:54:56;22.25;;;10.18;;
73296;SDS011;61524;50.938;11.396;2022-12-11T04:57:21;19.65;;;8.88;;
73296;SDS011;61524;50.938;11.396;2022-12-11T04:59:47;22.17;;;9.73;;
73296;SDS011;61524;50.938;11.396;2022-12-11T05:02:13;16.45;;;8.73;;
73296;SDS011;61524;50.938;11.396;2022-12-11T05:04:39;21.70;;;8.95;;
73296;SDS011;61524;50.938;11.396;2022-12-11T05:07:06;24.00;;;11.13;;
73296;SDS011;61524;50.938;11.396;2022-12-11T05:09:33;27.73;;;10.77;;
73296;SDS011;61524;50.938;11.396;2022-12-11T05:11:59;23.83;;;10.35;;
73296;SDS011;61524;50.938;11.396;2022-12-11T05:14:25;25.80;;;10.77;;
73296;SDS011;61524;50.938;11.396;2022-12-11T05:16:51;23.70;;;11.13;;
73296;SDS011;61524;50.938;11.396;2022-12-11T05:19:17;20.13;;;8.45;;
73296;SDS011;61524;50.938;11.396;2022-12-11T05:21:42;17.00;;;8.15;;
73296;SDS011;61524;50.938;11.396;2022-12-11T05:24:07;19.55;;;9.27;;
73296;SDS011;61524;50.938;11.396;2022-12-11T05:26:33;18.80;;;8.18;;
73296;SDS011;61524;50.938;11.396;2022-12-11T05:28:58;16.63;;;8.30;;
73296;SDS011;61524;50.938;11.396;2022-12-11T05:31:25;19.80;;;9.15;;
73296;SDS011;61524;50.938;11.396;2022-12-11T05:33:51;15.63;;;8.32;;
73296;SDS011;61524;50.938;11.396;2022-12-11T05:36:28;18.88;;;7.07;;
73296;SDS011;61524;50.938;11.396;2022-12-11T05:38:56;20.88;;;8.70;;
73296;SDS011;61524;50.938;11.396;2022-12-11T05:41:23;19.73;;;8.13;;
73296;SDS011;61524;50.938;11.396;2022-12-11T05:43:50;16.83;;;7.63;;
73296;SDS011;61524;50.938;11.396;2022-12-11T05:48:43;19.63;;;8.55;;
73296;SDS011;61524;50.938;11.396;2022-12-11T05:51:10;17.00;;;8.88;;
73296;SDS011;61524;50.938;11.396;2022-12-11T05:53:37;16.92;;;8.50;;
73296;SDS011;61524;50.938;11.396;2022-12-11T05:56:05;21.75;;;9.30;;
73296;SDS011;61524;50.938;11.396;2022-12-11T05:58:32;17.33;;;7.68;;
73296;SDS011;61524;50.938;11.396;2022-12-11T06:00:58;16.02;;;7.65;;
73296;SDS011;61524;50.938;11.396;2022-12-11T06:03:24;17.92;;;8.88;;
73296;SDS011;61524;50.938;11.396;2022-12-11T06:05:50;20.52;;;9.18;;
73296;SDS011;61524;50.938;11.396;2022-12-11T06:08:16;21.70;;;9.73;;
73296;SDS011;61524;50.938;11.396;2022-12-11T06:10:45;19.52;;;9.25;;
73296;SDS011;61524;50.938;11.396;2022-12-11T06:13:11;18.83;;;8.85;;
73296;SDS011;61524;50.938;11.396;2022-12-11T06:15:37;19.30;;;8.88;;
73296;SDS011;61524;50.938;11.396;2022-12-11T06:18:02;19.02;;;8.20;;
73296;SDS011;61524;50.938;11.396;2022-12-11T06:20:29;20.90;;;8.48;;
73296;SDS011;61524;50.938;11.396;2022-12-11T06:22:57;14.68;;;7.57;;
73296;SDS011;61524;50.938;11.396;2022-12-11T06:25:23;17.02;;;7.10;;
73296;SDS011;61524;50.938;11.396;2022-12-11T06:27:49;17.52;;;8.40;;
73296;SDS011;61524;50.938;11.396;2022-12-11T06:30:14;18.77;;;8.98;;
73296;SDS011;61524;50.938;11.396;2022-12-11T06:32:40;20.10;;;9.65;;
73296;SDS011;61524;50.938;11.396;2022-12-11T06:35:06;21.25;;;9.25;;
73296;SDS011;61524;50.938;11.396;2022-12-11T06:37:36;21.50;;;8.73;;
73296;SDS011;61524;50.938;11.396;2022-12-11T06:40:03;19.42;;;9.55;;
73296;SDS011;61524;50.938;11.396;2022-12-11T06:42:29;21.13;;;9.68;;
73296;SDS011;61524;50.938;11.396;2022-12-11T06:44:55;21.30;;;9.45;;
73296;SDS011;61524;50.938;11.396;2022-12-11T06:47:23;24.27;;;8.70;;
73296;SDS011;61524;50.938;11.396;2022-12-11T06:49:52;19.88;;;9.52;;
73296;SDS011;61524;50.938;11.396;2022-12-11T06:52:18;20.27;;;9.32;;
73296;SDS011;61524;50.938;11.396;2022-12-11T06:54:44;19.10;;;8.38;;
73296;SDS011;61524;50.938;11.396;2022-12-11T06:57:09;17.42;;;8.23;;
73296;SDS011;61524;50.938;11.396;2022-12-11T06:59:35;16.65;;;7.90;;
73296;SDS011;61524;50.938;11.396;2022-12-11T07:02:02;17.98;;;8.40;;
73296;SDS011;61524;50.938;11.396;2022-12-11T07:04:27;18.15;;;8.10;;
73296;SDS011;61524;50.938;11.396;2022-12-11T07:06:54;19.75;;;9.00;;
73296;SDS011;61524;50.938;11.396;2022-12-11T07:09:20;15.65;;;6.88;;
73296;SDS011;61524;50.938;11.396;2022-12-11T07:11:48;15.50;;;7.63;;
73296;SDS011;61524;50.938;11.396;2022-12-11T07:16:40;16.65;;;8.98;;
73296;SDS011;61524;50.938;11.396;2022-12-11T07:19:05;14.38;;;7.55;;
73296;SDS011;61524;50.938;11.396;2022-12-11T07:21:31;18.10;;;7.68;;
73296;SDS011;61524;50.938;11.396;2022-12-11T07:23:56;18.35;;;8.00;;
73296;SDS011;61524;50.938;11.396;2022-12-11T07:26:22;15.73;;;8.52;;
73296;SDS011;61524;50.938;11.396;2022-12-11T07:28:48;16.27;;;8.65;;
73296;SDS011;61524;50.938;11.396;2022-12-11T07:31:15;16.63;;;8.23;;
73296;SDS011;61524;50.938;11.396;2022-12-11T07:33:45;17.42;;;7.93;;
73296;SDS011;61524;50.938;11.396;2022-12-11T07:36:12;18.88;;;8.27;;
73296;SDS011;61524;50.938;11.396;2022-12-11T07:38:39;13.40;;;7.78;;
73296;SDS011;61524;50.938;11.396;2022-12-11T07:41:06;17.17;;;8.48;;
73296;SDS011;61524;50.938;11.396;2022-12-11T07:43:33;15.43;;;7.80;;
73296;SDS011;61524;50.938;11.396;2022-12-11T07:46:04;18.52;;;8.73;;
73296;SDS011;61524;50.938;11.396;2022-12-11T07:48:33;20.63;;;9.30;;
73296;SDS011;61524;50.938;11.396;2022-12-11T07:51:19;13.95;;;6.50;;
73296;SDS011;61524;50.938;11.396;2022-12-11T07:53:47;19.48;;;7.85;;
73296;SDS011;61524;50.938;11.396;2022-12-11T07:56:14;17.27;;;8.05;;
73296;SDS011;61524;50.938;11.396;2022-12-11T07:58:40;15.57;;;7.72;;
73296;SDS011;61524;50.938;11.396;2022-12-11T08:01:10;17.20;;;8.05;;
73296;SDS011;61524;50.938;11.396;2022-12-11T08:03:37;16.45;;;7.65;;
73296;SDS011;61524;50.938;11.396;2022-12-11T08:06:03;15.00;;;8.18;;
73296;SDS011;61524;50.938;11.396;2022-12-11T08:08:29;18.80;;;8.98;;
73296;SDS011;61524;50.938;11.396;2022-12-11T08:10:55;21.27;;;9.82;;
73296;SDS011;61524;50.938;11.396;2022-12-11T08:13:20;21.13;;;8.63;;
73296;SDS011;61524;50.938;11.396;2022-12-11T08:15:45;17.17;;;8.32;;
73296;SDS011;61524;50.938;11.396;2022-12-11T08:18:11;15.95;;;8.27;;
73296;SDS011;61524;50.938;11.396;2022-12-11T08:20:37;20.73;;;8.80;;
73296;SDS011;61524;50.938;11.396;2022-12-11T08:23:03;20.55;;;8.70;;
73296;SDS011;61524;50.938;11.396;2022-12-11T08:25:29;20.38;;;8.23;;
73296;SDS011;61524;50.938;11.396;2022-12-11T08:27:54;15.45;;;8.15;;
73296;SDS011;61524;50.938;11.396;2022-12-11T08:30:19;18.67;;;7.72;;
73296;SDS011;61524;50.938;11.396;2022-12-11T08:32:45;15.43;;;7.47;;
73296;SDS011;61524;50.938;11.396;2022-12-11T08:35:10;20.83;;;9.15;;
73296;SDS011;61524;50.938;11.396;2022-12-11T08:37:36;17.73;;;8.18;;
73296;SDS011;61524;50.938;11.396;2022-12-11T08:40:01;16.70;;;7.18;;
73296;SDS011;61524;50.938;11.396;2022-12-11T08:42:28;17.10;;;7.85;;
73296;SDS011;61524;50.938;11.396;2022-12-11T08:44:53;22.00;;;8.45;;
73296;SDS011;61524;50.938;11.396;2022-12-11T08:47:18;15.52;;;8.05;;
73296;SDS011;61524;50.938;11.396;2022-12-11T08:49:44;20.88;;;8.30;;
73296;SDS011;61524;50.938;11.396;2022-12-11T08:52:10;18.63;;;8.23;;
73296;SDS011;61524;50.938;11.396;2022-12-11T08:54:36;14.20;;;7.93;;
73296;SDS011;61524;50.938;11.396;2022-12-11T08:57:02;20.45;;;8.43;;
73296;SDS011;61524;50.938;11.396;2022-12-11T08:59:28;17.40;;;9.77;;
73296;SDS011;61524;50.938;11.396;2022-12-11T09:01:53;18.33;;;8.57;;
73296;SDS011;61524;50.938;11.396;2022-12-11T09:04:20;15.40;;;8.52;;
73296;SDS011;61524;50.938;11.396;2022-12-11T09:06:45;16.80;;;8.27;;
73296;SDS011;61524;50.938;11.396;2022-12-11T09:09:11;20.42;;;9.88;;
73296;SDS011;61524;50.938;11.396;2022-12-11T09:11:37;19.60;;;8.82;;
73296;SDS011;61524;50.938;11.396;2022-12-11T09:14:03;18.25;;;8.70;;
73296;SDS011;61524;50.938;11.396;2022-12-11T09:16:29;20.50;;;8.73;;
73296;SDS011;61524;50.938;11.396;2022-12-11T09:18:56;21.35;;;8.43;;
73296;SDS011;61524;50.938;11.396;2022-12-11T09:21:24;15.82;;;7.43;;
73296;SDS011;61524;50.938;11.396;2022-12-11T09:23:52;20.90;;;9.25;;
73296;SDS011;61524;50.938;11.396;2022-12-11T09:26:18;20.67;;;10.00;;
73296;SDS011;61524;50.938;11.396;2022-12-11T09:28:45;19.67;;;9.43;;
73296;SDS011;61524;50.938;11.396;2022-12-11T09:31:12;18.75;;;8.63;;
73296;SDS011;61524;50.938;11.396;2022-12-11T09:34:01;18.90;;;8.15;;
73296;SDS011;61524;50.938;11.396;2022-12-11T09:36:28;18.08;;;9.68;;
73296;SDS011;61524;50.938;11.396;2022-12-11T09:38:54;17.17;;;8.57;;
73296;SDS011;61524;50.938;11.396;2022-12-11T09:43:47;19.88;;;8.45;;
73296;SDS011;61524;50.938;11.396;2022-12-11T09:46:16;13.25;;;7.10;;
73296;SDS011;61524;50.938;11.396;2022-12-11T09:48:44;22.25;;;10.40;;
73296;SDS011;61524;50.938;11.396;2022-12-11T09:51:18;18.23;;;8.45;;
73296;SDS011;61524;50.938;11.396;2022-12-11T09:53:54;19.30;;;9.40;;
73296;SDS011;61524;50.938;11.396;2022-12-11T09:56:28;16.55;;;7.22;;
73296;SDS011;61524;50.938;11.396;2022-12-11T10:16:17;17.77;;;7.65;;
73296;SDS011;61524;50.938;11.396;2022-12-11T10:18:46;17.98;;;9.60;;
73296;SDS011;61524;50.938;11.396;2022-12-11T10:21:12;19.15;;;8.38;;
73296;SDS011;61524;50.938;11.396;2022-12-11T10:23:51;17.23;;;8.50;;
73296;SDS011;61524;50.938;11.396;2022-12-11T10:26:21;19.38;;;8.23;;
73296;SDS011;61524;50.938;11.396;2022-12-11T10:28:47;17.08;;;8.20;;
73296;SDS011;61524;50.938;11.396;2022-12-11T10:36:26;16.02;;;7.20;;
73296;SDS011;61524;50.938;11.396;2022-12-11T10:38:54;16.33;;;6.80;;
73296;SDS011;61524;50.938;11.396;2022-12-11T10:41:32;21.73;;;9.52;;
73296;SDS011;61524;50.938;11.396;2022-12-11T10:49:35;16.23;;;6.68;;
73296;SDS011;61524;50.938;11.396;2022-12-11T10:52:08;22.63;;;10.00;;
73296;SDS011;61524;50.938;11.396;2022-12-11T10:54:45;19.48;;;9.52;;
73296;SDS011;61524;50.938;11.396;2022-12-11T10:57:24;19.42;;;8.38;;
73296;SDS011;61524;50.938;11.396;2022-12-11T10:59:52;19.70;;;7.50;;
73296;SDS011;61524;50.938;11.396;2022-12-11T11:04:44;15.05;;;8.35;;
73296;SDS011;61524;50.938;11.396;2022-12-11T11:07:13;21.15;;;9.02;;
73296;SDS011;61524;50.938;11.396;2022-12-11T11:09:44;19.40;;;9.32;;
73296;SDS011;61524;50.938;11.396;2022-12-11T11:12:23;19.40;;;8.98;;
73296;SDS011;61524;50.938;11.396;2022-12-11T11:14:57;17.40;;;8.15;;
73296;SDS011;61524;50.938;11.396;2022-12-11T11:17:43;20.50;;;9.23;;
73296;SDS011;61524;50.938;11.396;2022-12-11T11:20:16;16.63;;;8.43;;
73296;SDS011;61524;50.938;11.396;2022-12-11T11:22:44;22.48;;;9.75;;
73296;SDS011;61524;50.938;11.396;2022-12-11T11:25:20;19.40;;;9.00;;
73296;SDS011;61524;50.938;11.396;2022-12-11T11:27:49;18.20;;;9.52;;
73296;SDS011;61524;50.938;11.396;2022-12-11T11:30:18;25.60;;;10.35;;
73296;SDS011;61524;50.938;11.396;2022-12-11T11:32:58;22.48;;;9.40;;
73296;SDS011;61524;50.938;11.396;2022-12-11T11:35:29;23.90;;;10.10;;
73296;SDS011;61524;50.938;11.396;2022-12-11T11:38:12;19.05;;;8.70;;
73296;SDS011;61524;50.938;11.396;2022-12-11T11:51:18;18.25;;;8.02;;
73296;SDS011;61524;50.938;11.396;2022-12-11T11:53:49;22.55;;;8.98;;
73296;SDS011;61524;50.938;11.396;2022-12-11T11:56:20;17.35;;;7.65;;
73296;SDS011;61524;50.938;11.396;2022-12-11T11:58:57;16.45;;;7.57;;
73296;SDS011;61524;50.938;11.396;2022-12-11T12:01:46;18.45;;;8.68;;
73296;SDS011;61524;50.938;11.396;2022-12-11T12:04:12;21.85;;;10.07;;
73296;SDS011;61524;50.938;11.396;2022-12-11T12:14:29;18.00;;;8.85;;
73296;SDS011;61524;50.938;11.396;2022-12-11T12:30:59;17.48;;;8.75;;
73296;SDS011;61524;50.938;11.396;2022-12-11T12:33:35;13.43;;;7.40;;
73296;SDS011;61524;50.938;11.396;2022-12-11T12:36:14;22.13;;;8.90;;
73296;SDS011;61524;50.938;11.396;2022-12-11T12:39:01;18.38;;;8.95;;
73296;SDS011;61524;50.938;11.396;2022-12-11T12:51:58;12.93;;;6.38;;
73296;SDS011;61524;50.938;11.396;2022-12-11T12:54:26;17.67;;;7.75;;
73296;SDS011;61524;50.938;11.396;2022-12-11T12:56:53;19.33;;;8.50;;
73296;SDS011;61524;50.938;11.396;2022-12-11T13:01:50;15.10;;;7.80;;
73296;SDS011;61524;50.938;11.396;2022-12-11T13:07:09;20.13;;;9.98;;
73296;SDS011;61524;50.938;11.396;2022-12-11T13:12:48;16.98;;;8.38;;
73296;SDS011;61524;50.938;11.396;2022-12-11T13:15:29;14.95;;;8.80;;
73296;SDS011;61524;50.938;11.396;2022-12-11T13:18:01;16.77;;;8.00;;
73296;SDS011;61524;50.938;11.396;2022-12-11T13:20:30;20.00;;;8.80;;
73296;SDS011;61524;50.938;11.396;2022-12-11T13:25:31;14.20;;;7.95;;
73296;SDS011;61524;50.938;11.396;2022-12-11T13:28:23;15.93;;;9.18;;
73296;SDS011;61524;50.938;11.396;2022-12-11T13:31:06;14.70;;;6.70;;
73296;SDS011;61524;50.938;11.396;2022-12-11T13:33:53;15.82;;;7.82;;
73296;SDS011;61524;50.938;11.396;2022-12-11T13:36:28;12.63;;;6.28;;
73296;SDS011;61524;50.938;11.396;2022-12-11T13:39:05;10.57;;;6.38;;
73296;SDS011;61524;50.938;11.396;2022-12-11T13:41:39;13.82;;;7.75;;
73296;SDS011;61524;50.938;11.396;2022-12-11T13:44:11;14.95;;;6.88;;
73296;SDS011;61524;50.938;11.396;2022-12-11T13:46:45;11.73;;;5.97;;
73296;SDS011;61524;50.938;11.396;2022-12-11T13:49:20;15.45;;;7.72;;
73296;SDS011;61524;50.938;11.396;2022-12-11T13:51:57;15.73;;;7.50;;
73296;SDS011;61524;50.938;11.396;2022-12-11T13:54:24;23.17;;;8.63;;
73296;SDS011;61524;50.938;11.396;2022-12-11T13:56:58;19.15;;;8.38;;
73296;SDS011;61524;50.938;11.396;2022-12-11T14:01:57;13.95;;;6.80;;
73296;SDS011;61524;50.938;11.396;2022-12-11T14:04:27;15.88;;;7.75;;
73296;SDS011;61524;50.938;11.396;2022-12-11T14:06:54;17.08;;;7.90;;
73296;SDS011;61524;50.938;11.396;2022-12-11T14:09:21;16.60;;;7.72;;
73296;SDS011;61524;50.938;11.396;2022-12-11T14:11:50;14.25;;;6.78;;
73296;SDS011;61524;50.938;11.396;2022-12-11T14:14:18;13.50;;;7.25;;
73296;SDS011;61524;50.938;11.396;2022-12-11T14:19:28;10.23;;;5.15;;
73296;SDS011;61524;50.938;11.396;2022-12-11T14:21:57;12.35;;;6.50;;
73296;SDS011;61524;50.938;11.396;2022-12-11T14:24:24;14.85;;;7.53;;
73296;SDS011;61524;50.938;11.396;2022-12-11T14:26:50;18.92;;;8.90;;
73296;SDS011;61524;50.938;11.396;2022-12-11T14:29:30;16.25;;;7.50;;
73296;SDS011;61524;50.938;11.396;2022-12-11T14:31:59;15.73;;;7.85;;
73296;SDS011;61524;50.938;11.396;2022-12-11T14:37:01;18.23;;;8.75;;
73296;SDS011;61524;50.938;11.396;2022-12-11T14:39:32;20.05;;;9.02;;
73296;SDS011;61524;50.938;11.396;2022-12-11T14:42:11;22.58;;;9.98;;
73296;SDS011;61524;50.938;11.396;2022-12-11T14:44:44;22.23;;;9.95;;
73296;SDS011;61524;50.938;11.396;2022-12-11T14:47:15;19.42;;;8.32;;
73296;SDS011;61524;50.938;11.396;2022-12-11T14:50:04;19.15;;;8.90;;
73296;SDS011;61524;50.938;11.396;2022-12-11T14:52:38;20.77;;;9.45;;
73296;SDS011;61524;50.938;11.396;2022-12-11T14:55:09;20.40;;;9.30;;
73296;SDS011;61524;50.938;11.396;2022-12-11T14:57:44;16.20;;;7.40;;
73296;SDS011;61524;50.938;11.396;2022-12-11T15:03:04;14.68;;;7.90;;
73296;SDS011;61524;50.938;11.396;2022-12-11T15:05:46;16.73;;;8.73;;
73296;SDS011;61524;50.938;11.396;2022-12-11T15:08:20;12.15;;;7.00;;
73296;SDS011;61524;50.938;11.396;2022-12-11T15:11:10;16.23;;;8.10;;
73296;SDS011;61524;50.938;11.396;2022-12-11T15:19:02;16.70;;;8.63;;
73296;SDS011;61524;50.938;11.396;2022-12-11T15:21:31;15.18;;;6.63;;
73296;SDS011;61524;50.938;11.396;2022-12-11T15:24:00;16.10;;;9.20;;
73296;SDS011;61524;50.938;11.396;2022-12-11T15:26:31;15.60;;;8.10;;
73296;SDS011;61524;50.938;11.396;2022-12-11T15:29:01;14.07;;;7.88;;
73296;SDS011;61524;50.938;11.396;2022-12-11T15:31:29;24.95;;;9.77;;
73296;SDS011;61524;50.938;11.396;2022-12-11T15:33:57;21.27;;;9.23;;
73296;SDS011;61524;50.938;11.396;2022-12-11T15:36:24;20.33;;;9.93;;
73296;SDS011;61524;50.938;11.396;2022-12-11T15:38:55;19.55;;;9.88;;
73296;SDS011;61524;50.938;11.396;2022-12-11T15:41:22;18.63;;;8.75;;
73296;SDS011;61524;50.938;11.396;2022-12-11T15:43:49;23.67;;;10.68;;
73296;SDS011;61524;50.938;11.396;2022-12-11T15:46:16;19.85;;;9.73;;
73296;SDS011;61524;50.938;11.396;2022-12-11T15:48:42;24.42;;;10.60;;
73296;SDS011;61524;50.938;11.396;2022-12-11T15:51:08;18.90;;;9.10;;
73296;SDS011;61524;50.938;11.396;2022-12-11T15:53:34;21.10;;;10.00;;
73296;SDS011;61524;50.938;11.396;2022-12-11T15:55:59;28.92;;;11.15;;
73296;SDS011;61524;50.938;11.396;2022-12-11T15:58:25;22.60;;;11.18;;
73296;SDS011;61524;50.938;11.396;2022-12-11T16:00:51;22.80;;;9.45;;
73296;SDS011;61524;50.938;11.396;2022-12-11T16:03:18;18.38;;;9.73;;
73296;SDS011;61524;50.938;11.396;2022-12-11T16:05:46;23.77;;;10.57;;
73296;SDS011;61524;50.938;11.396;2022-12-11T16:08:14;23.63;;;11.68;;
73296;SDS011;61524;50.938;11.396;2022-12-11T16:10:41;22.80;;;10.55;;
73296;SDS011;61524;50.938;11.396;2022-12-11T16:13:08;21.48;;;10.00;;
73296;SDS011;61524;50.938;11.396;2022-12-11T16:15:36;23.67;;;11.18;;
73296;SDS011;61524;50.938;11.396;2022-12-11T16:18:06;20.75;;;10.10;;
73296;SDS011;61524;50.938;11.396;2022-12-11T16:20:34;22.77;;;10.13;;
73296;SDS011;61524;50.938;11.396;2022-12-11T16:23:01;15.15;;;8.02;;
73296;SDS011;61524;50.938;11.396;2022-12-11T16:25:27;17.55;;;9.25;;
73296;SDS011;61524;50.938;11.396;2022-12-11T16:27:54;20.00;;;8.85;;
73296;SDS011;61524;50.938;11.396;2022-12-11T16:30:21;14.10;;;8.13;;
73296;SDS011;61524;50.938;11.396;2022-12-11T16:32:47;14.43;;;7.95;;